クグルクトゥク の空港の天気 - METARとTAF

Coppermine ( CYCO / YCO ) - カナダ ヌナブト準州Kugluktuk
飛行場実況気象(Metar)
観測時間12/13 23:00 MST (12/14 06:00 UTC)
風向・風速北 8m/s
視程6450m
天気現象弱い霧雪 高い地吹雪
全天を覆う雲 雲底高度 550m
気温-19℃
湿度77%
気圧1001.9hPa
METARCYCO 140600Z 01016KT 4SM -SG BLSN OVC018 M19/M22 A2957 RMK SC8 SLP019
過去の天気等 Google飛行場航空写真 Wunderground天気予報

過去48時間のMETAR

飛行場予報(TAF)
発表時間: 12/13 17:38 MST (12/14 00:38 UTC)
予報対象時間: 13日18時 MST ~ 14日6時 MST
風向・風速北 8m/s 瞬間風速 14m/s
視程3220m
天気現象弱い雪 高い地吹雪
全天を覆う雲 鉛直視程 460m
13日18時 MST ~ 13日20時 MST に一時的に
視程6440m
天気現象弱い雪
全天を覆う雲 雲底高度 1830m
13日20時 MST から
風向・風速北 8m/s
視程6440m
天気現象弱い雪 高い地吹雪
全天を覆う雲 雲底高度 910m
13日20時 MST ~ 14日6時 MST に一時的に
視程10km以上
天気現象弱い雪
13日20時 MST から 確率 30% で
視程3220m
天気現象弱い雪 高い地吹雪
TAF CYCO 140038Z 1401/1413 01015G27KT 2SM -SN BLSN VV015
TEMPO 1401/1403 4SM -SN OVC060
FM140300 01015KT 4SM -SN BLSN OVC030
TEMPO 1403/1413 6SM -SN
PROB30 1403/1406 2SM -SN BLSN RMK NXT FCST BY 140700Z